« 2010年3月 | トップページ | 2010年5月 »

2010年4月

2010年4月25日 (日)

新撰組で筑波山~加波山

RJAA 250000Z 27003KT 180V340 9999 FEW030 12/01 Q1025 NOSIG
RJAA 250300Z VRB05KT 9999 FEW030 16/M00 Q1024 BECMG 15006KT
RJAA 250600Z 15011KT 9999 FEW030 16/00 Q1022 NOSIG
RJAA 250900Z 19003KT 9999 FEW030 13/04 Q1023 NOSIG

予報以上に天気の良い土曜日です。

Dscn2474s
久しぶりに新撰組IS28M2GR/JA21HEのPICで飛びます!

Photo
モグラライセンシーのS楽さんをお誘いしました~

Dscn2477s
良い感じの雲が出ています~

Dscn2490s
筑波山~!ロープウェイの山頂駅が見えます!



Ja21he
JA21HEで筑波山~加波山まで飛んできました。

|

2010年4月18日 (日)

田植えと進空式とカレー!

RJAA 172100Z 35006KT 6000 BR NSC 04/03 Q1026 NOSIG
RJAA 180000Z VRB02KT 9999 FEW040 10/03 Q1026 BECMG 36005KT
RJAA 180300Z 28003KT 9999 FEW030 BKN/// 15/M01 Q1026 NOSIG
RJAA 180600Z 15012KT 9999 FEW030 BKN/// 13/03 Q1025 NOSIG
RJAA 180900Z 15007KT CAVOK 11/05 Q1025 NOSIG

久しぶりに天気の良い日曜日。今日は大勢のクラブ員で飛行場は朝から賑やかです。
そうです、苦節数年、機体購入から飛行場の近くにMyハンガー用の土地を購入し、
ハンガーを建て、整備士のM田師匠をストーカーして自分で愛機をレストアしてついに
この日を迎えた真性航空廃人のA尾さんの25Bがロールアウトしました!
お祝いに山本主任教官自ら25B進空祝いカレーを仕込み、クラブ員に振舞われました♪

Dscn2459s
胴体が出てきました・・・・A尾さん何やってるの?


Dscn2468s
クラブハウスでは山本シェフの指示の下、マコト君がカレー用のご飯を用意しています。

Dscn2452s
クラブハウスは朝から満員!

Photo
ホワイトボードは予約でいっぱい!

Dscn2471s
バギーのエンジンが渋っています・・・・が、あーだこーだの末、原因は燃料コックでした(笑)

続きを読む "田植えと進空式とカレー!"

|

2010年4月17日 (土)

4月なのに雪!

寒い!
寒い×4!

朝、目が覚めたら外は雪でした!
4月だよね?

RJAA 162100Z 33015KT 3000 rain-RA BR FEW001 BKN004 03/02 Q1018 TEMPO typhoon36018G30KT
RJAA 162136Z 33015KT 2000 snowSHGSRA BR FEW002 BKN004 02/01 Q1019 RMK 1ST002 7ST004A3010 SMALL HAIL
RJAA 162200Z 33016KT 3500 rain-SHRA BR FEW002 BKN007 02/01 Q1019 TEMPO typhoon36018G30KT BKN004 BKN015
RJAA 162237Z 33016KT 3000 snowSHRAGS BR FEW003 BKN006 BKN020 01/01 Q1020 RMK 1ST0035ST006 7CU020 A3012 SMALL HAIL
RJAA 162330Z 32014KT 2300 R34L/P1800N R34R/P1800N snowSHSNGS BR FEW002 typhoonBKN005 BKN020 01/00 Q1021 TEMPO 36018G30KT
RJAA 170000Z 33017KT 3200 R34L/P1800N R34R/P1800N snowSHGSSN BR FEW005 BKN015 BKN030 01/00 Q1020 TEMPO 36018G30KT BKN004 BKN015
RJAA 170100Z 36020KT 9999 rain-SHRA FEW007 SCT020 BKN050 04/03 Q1019 RERASN TEMPO typhoon36018G30KT
RJAA 170300Z 36018KT 9999 FEW006 BKN008 06/04 Q1019 TEMPO typhoon02016G28KT BECMG BKN015
RJAA 170600Z 03014KT 360V060 9999 FEW016 BKN020 08/04 Q1020 NOSIG
RJAA 170800Z 06009KT 9999 FEW019 07/03 Q1021 BECMG 08006KT RMK 1CU019 A3016

|

2010年4月12日 (月)

風邪をこじらせ・・・・寝込んだ・・・でも、飲み会→撃沈!

4/5
月曜日は雨の中、出張だった。
会社に戻って仕事中・・・・なんかダルイなぁ~!
(ρ_;)










4/6
火曜日
少し喉が痛いなぁ~!
と言いながら仕事した。
(;´Д⊂









4/7
水曜日
う~ん、なんか熱っぽいなぁ~
でも会社に行った。
家に帰って布団に入るが・・・
あれ?あれれれれれれ!
。゜゜(´□`。)°゜。spa







4/8
木曜日
体が動かない・・・・・
喉が痛い・・・・・・
気持ち悪いぃ~

会社は休んで、病院にいこう・・・・・・・
病院でインフルエンザでは無いと言われたが39℃近い熱がある・・・・・・
spaspaspaspa




4/9
金曜日
昨日と状況変らず
JMGCのクラブ員がお見舞いに来てくれる(食料持って)
spaspaspaspa





4/10
土曜日
熱も下がったし、今夜は宴会だぁ!
でも、念の為に病院に行ってこよう!
やっぱりインフルエンザではなかった!良かった!
夕方になり熱も下がったので、成田市の某所で行われた宴会に参加!
自業自得だが、家に帰って轟沈!
wheelchair


4/11
日曜日
上空や地上からクラブ員がお見舞いに来てくれた!
嬉しいやら悔しいやら・・・・・・・
念の為、再度病院へ・・・・・気管支炎になっていた!
薬を処方してもらって家でおとなしくしていたらよくなって来た!
fuji


~と、本日は無事に会社に行けました(笑)

続きを読む "風邪をこじらせ・・・・寝込んだ・・・でも、飲み会→撃沈!"

|

2010年4月 4日 (日)

モグラの接線着陸~!

JA2351は朝一番で北アルプス経由で松本空港まで往復してきました。

神の領域にお住まいの、ひらおかさんがモグラで接線着陸をすると言うので機上や地上で取材させて頂きました!


通常、尾輪式のモーターグライダーは3点着陸を行いますが、これはモーターグライダーで接線着陸を行った時の映像です。精密なピッチ操作とラダーによる方向維持の技量が要求されます。movieカメラのゴミがうざい!sweat01

Dscn2424s
尾輪式のモーターグライダーIS28M2GRで接線着陸を行う、ひらおかさん

Dscn2427s
飛行場対岸の栄町の公園は桜満開です!

Dscn2425s
RWY07に進入中~

続きを読む "モグラの接線着陸~!"

|

2010年4月 3日 (土)

SGKキャプテンの花見飛行~!(編集中)

編集中sign03

土曜日はSGKさんにお誘い頂き、モグラで花見に行ってきました!


Sgk1
離陸前点検を行うSGKキャプテン

Dscn2374s
RWY07で離陸します

Dscn2376s
離陸上昇中sign01

Dscn2379s
千葉県市原市のこどもの国!

Sgk3_2
ご自宅上空で旋回をするSGKキャプテン

Dscn2390s
印西市の小林牧場も桜が満開でしたscissors

 

Sgk4
RWY07に着陸するSGKキャプテン・・・・真剣ですhappy01

Photo
花見フライトの航跡です

続きを読む "SGKキャプテンの花見飛行~!(編集中)"

|

« 2010年3月 | トップページ | 2010年5月 »